createdAt,value
2018-05-01T00:00:20.042Z,13.53
2018-05-01T00:01:19.961Z,13.41
2018-05-01T00:02:19.897Z,13.48
2018-05-01T00:03:19.813Z,13.36
2018-05-01T00:04:19.746Z,13.33
2018-05-01T00:05:19.668Z,13.32
2018-05-01T00:06:19.599Z,13.28
2018-05-01T00:07:19.518Z,13.24
2018-05-01T00:08:19.447Z,13.29
2018-05-01T00:09:19.363Z,13.27
2018-05-01T00:10:19.300Z,13.25
2018-05-01T00:11:19.217Z,13.33
2018-05-01T00:12:19.149Z,13.32
2018-05-01T00:13:19.070Z,13.37
2018-05-01T00:14:19.005Z,13.25
2018-05-01T00:15:18.914Z,13.25
2018-05-01T00:16:18.854Z,13.25
2018-05-01T00:17:18.769Z,13.19
2018-05-01T00:18:18.705Z,13.17
2018-05-01T00:19:18.620Z,13.11
2018-05-01T00:20:18.555Z,13.19
2018-05-01T00:21:18.474Z,13.17
2018-05-01T00:22:18.408Z,13.19
2018-05-01T00:23:18.326Z,13.14
2018-05-01T00:24:18.253Z,13.21
2018-05-01T00:25:18.171Z,13.17
2018-05-01T00:26:18.106Z,13.19
2018-05-01T00:27:18.031Z,13.18
2018-05-01T00:28:17.949Z,13.02
2018-05-01T00:29:17.880Z,13.02
2018-05-01T00:30:17.801Z,13.04
2018-05-01T00:31:17.730Z,13.00
2018-05-01T00:32:17.651Z,12.97
2018-05-01T00:33:17.582Z,13.07
2018-05-01T00:34:17.500Z,12.99
2018-05-01T00:35:17.434Z,13.03
2018-05-01T00:36:17.353Z,13.03
2018-05-01T00:37:17.287Z,13.03
2018-05-01T00:38:17.278Z,13.06
2018-05-01T00:39:17.134Z,12.99
2018-05-01T00:40:17.055Z,13.04
2018-05-01T00:41:16.991Z,13.03
2018-05-01T00:42:16.904Z,13.06
2018-05-01T00:43:17.836Z,13.15
2018-05-01T00:44:16.753Z,13.15
2018-05-01T00:45:16.690Z,13.03
2018-05-01T00:46:16.611Z,13.17
2018-05-01T00:47:16.539Z,13.04
2018-05-01T00:48:16.458Z,13.17
2018-05-01T00:49:16.389Z,13.10
2018-05-01T00:50:16.311Z,13.07
2018-05-01T00:51:16.240Z,13.09
2018-05-01T00:52:16.159Z,13.11
2018-05-01T00:53:16.092Z,13.02
2018-05-01T00:54:16.027Z,13.00
2018-05-01T00:55:15.941Z,12.96
2018-05-01T00:56:15.862Z,12.86
2018-05-01T00:57:15.795Z,12.89
2018-05-01T00:58:15.714Z,12.94
2018-05-01T00:59:15.639Z,12.85
2018-05-01T01:00:15.560Z,12.96
2018-05-01T01:01:15.497Z,13.03
2018-05-01T01:02:15.487Z,13.00
2018-05-01T01:03:15.343Z,13.04
2018-05-01T01:04:15.262Z,13.06
2018-05-01T01:05:15.194Z,13.14
2018-05-01T01:06:15.115Z,13.15
2018-05-01T01:07:15.045Z,13.14
2018-05-01T01:08:14.968Z,13.07
2018-05-01T01:09:14.899Z,13.10
2018-05-01T01:10:14.820Z,13.19
2018-05-01T01:11:14.747Z,13.15
2018-05-01T01:12:14.663Z,13.14
2018-05-01T01:13:14.598Z,13.24
2018-05-01T01:14:14.516Z,13.03
2018-05-01T01:15:14.447Z,13.04
2018-05-01T01:16:14.361Z,13.04
2018-05-01T01:17:14.308Z,13.03
2018-05-01T01:18:14.214Z,13.02
2018-05-01T01:19:14.148Z,13.03
2018-05-01T01:20:14.069Z,12.97
2018-05-01T01:21:14.002Z,13.03
2018-05-01T01:22:13.917Z,13.02
2018-05-01T01:23:13.851Z,13.04
2018-05-01T01:24:13.768Z,12.94
2018-05-01T01:25:13.700Z,13.00
2018-05-01T01:26:13.617Z,12.89
2018-05-01T01:27:13.550Z,12.84
2018-05-01T01:28:13.468Z,12.89
2018-05-01T01:29:13.403Z,12.85
2018-05-01T01:30:13.319Z,12.86
2018-05-01T01:31:13.313Z,12.84
2018-05-01T01:32:13.172Z,12.85
2018-05-01T01:33:13.101Z,12.89
2018-05-01T01:34:13.017Z,12.86
2018-05-01T01:35:12.954Z,12.97
2018-05-01T01:36:12.877Z,13.02
2018-05-01T01:37:12.803Z,12.96
2018-05-01T01:38:12.723Z,12.97
2018-05-01T01:39:12.661Z,12.94
2018-05-01T01:40:12.569Z,12.99
2018-05-01T01:41:12.503Z,12.97
2018-05-01T01:42:12.422Z,12.96
2018-05-01T01:43:12.353Z,12.97
2018-05-01T01:44:12.273Z,13.06
2018-05-01T01:45:12.205Z,13.06
2018-05-01T01:46:12.123Z,13.04
2018-05-01T01:47:12.051Z,13.07
2018-05-01T01:48:11.974Z,13.02
2018-05-01T01:49:11.906Z,13.15
2018-05-01T01:50:11.824Z,13.15
2018-05-01T01:51:11.755Z,13.07
2018-05-01T01:52:11.672Z,13.15
2018-05-01T01:53:11.612Z,13.17
2018-05-01T01:54:11.524Z,13.15
2018-05-01T01:55:11.458Z,13.11
2018-05-01T01:56:11.375Z,13.14
2018-05-01T01:57:11.309Z,13.11
2018-05-01T01:58:11.227Z,13.10
2018-05-01T01:59:11.154Z,13.22
2018-05-01T02:00:11.074Z,13.19
2018-05-01T02:01:11.012Z,13.11
2018-05-01T02:02:10.932Z,13.03
2018-05-01T02:03:10.860Z,13.15
2018-05-01T02:04:10.778Z,13.06
2018-05-01T02:05:10.707Z,13.09
2018-05-01T02:06:10.625Z,12.94
2018-05-01T02:07:10.554Z,12.96
2018-05-01T02:08:10.478Z,13.00
2018-05-01T02:09:10.410Z,12.96
2018-05-01T02:10:10.326Z,12.97
2018-05-01T02:11:10.258Z,12.94
2018-05-01T02:12:10.175Z,13.10
2018-05-01T02:13:10.107Z,13.06
2018-05-01T02:14:10.026Z,13.02
2018-05-01T02:15:09.958Z,12.99
2018-05-01T02:16:09.878Z,13.02
2018-05-01T02:17:09.808Z,13.07
2018-05-01T02:18:09.727Z,13.02
2018-05-01T02:19:09.662Z,12.94
2018-05-01T02:20:09.577Z,13.11
2018-05-01T02:21:09.511Z,13.00
2018-05-01T02:22:09.427Z,12.89
2018-05-01T02:23:09.361Z,12.92
2018-05-01T02:24:09.276Z,13.02
2018-05-01T02:25:09.211Z,12.96
2018-05-01T02:26:09.129Z,12.89
2018-05-01T02:27:09.061Z,12.84
2018-05-01T02:28:08.979Z,12.81
2018-05-01T02:29:08.910Z,12.85
2018-05-01T02:30:08.828Z,12.77
2018-05-01T02:31:08.758Z,12.71
2018-05-01T02:32:08.697Z,12.69
2018-05-01T02:33:08.612Z,12.64
2018-05-01T02:34:08.531Z,12.52
2018-05-01T02:35:08.459Z,12.60
2018-05-01T02:36:08.375Z,12.55
2018-05-01T02:37:08.308Z,12.59
2018-05-01T02:38:08.229Z,12.64
2018-05-01T02:39:08.162Z,12.70
2018-05-01T02:40:08.078Z,12.70
2018-05-01T02:41:08.080Z,12.78
2018-05-01T02:42:07.930Z,12.85
2018-05-01T02:43:07.855Z,12.78
2018-05-01T02:44:07.778Z,12.89
2018-05-01T02:45:07.717Z,12.86
2018-05-01T02:46:07.633Z,12.89
2018-05-01T02:47:07.569Z,12.91
2018-05-01T02:48:07.478Z,12.88
2018-05-01T02:49:07.411Z,12.84
2018-05-01T02:50:07.329Z,12.81
2018-05-01T02:51:07.264Z,12.78
2018-05-01T02:52:07.179Z,12.78
2018-05-01T02:53:07.111Z,12.79
2018-05-01T02:54:07.035Z,12.81
2018-05-01T02:55:07.956Z,12.71
2018-05-01T02:56:06.879Z,12.73
2018-05-01T02:57:06.820Z,12.77
2018-05-01T02:58:06.730Z,12.77
2018-05-01T02:59:06.663Z,12.73
2018-05-01T03:00:06.574Z,12.74
2018-05-01T03:01:06.509Z,12.78
2018-05-01T03:02:06.428Z,12.81
2018-05-01T03:03:06.360Z,12.71
2018-05-01T03:04:06.279Z,12.67
2018-05-01T03:05:06.213Z,12.63
2018-05-01T03:06:06.129Z,12.61
2018-05-01T03:07:06.063Z,12.63
2018-05-01T03:08:05.977Z,12.51
2018-05-01T03:09:05.909Z,12.59
2018-05-01T03:10:05.831Z,12.60
2018-05-01T03:11:05.760Z,12.64
2018-05-01T03:12:05.681Z,12.66
2018-05-01T03:13:05.609Z,12.71
2018-05-01T03:14:05.527Z,12.64
2018-05-01T03:15:05.465Z,12.79
2018-05-01T03:16:05.386Z,12.81
2018-05-01T03:17:05.310Z,12.79
2018-05-01T03:18:05.230Z,12.82
2018-05-01T03:19:05.159Z,12.74
2018-05-01T03:20:05.079Z,12.81
2018-05-01T03:21:05.011Z,12.81
2018-05-01T03:22:04.928Z,12.77
2018-05-01T03:23:04.856Z,12.73
2018-05-01T03:24:04.775Z,12.77
2018-05-01T03:25:04.706Z,12.79
2018-05-01T03:26:04.627Z,12.77
2018-05-01T03:27:04.557Z,12.86
2018-05-01T03:28:04.476Z,12.74
2018-05-01T03:29:04.407Z,12.63
2018-05-01T03:30:04.334Z,12.67
2018-05-01T03:31:04.261Z,12.66
2018-05-01T03:32:04.175Z,12.64
2018-05-01T03:33:04.108Z,12.73
2018-05-01T03:34:04.026Z,12.66
2018-05-01T03:35:03.951Z,12.67
2018-05-01T03:36:03.875Z,12.69
2018-05-01T03:37:03.807Z,12.71
2018-05-01T03:38:03.725Z,12.71
2018-05-01T03:39:03.751Z,12.74
2018-05-01T03:40:03.577Z,12.71
2018-05-01T03:41:03.515Z,12.66
2018-05-01T03:42:03.425Z,12.70
2018-05-01T03:43:03.354Z,12.67
2018-05-01T03:44:03.274Z,12.71
2018-05-01T03:45:03.209Z,12.69
2018-05-01T03:46:03.773Z,12.67
2018-05-01T03:47:03.058Z,12.78
2018-05-01T03:48:02.976Z,12.78
2018-05-01T03:49:02.961Z,12.81
2018-05-01T03:50:02.828Z,12.79
2018-05-01T03:51:02.755Z,12.82
2018-05-01T03:52:02.673Z,12.73
2018-05-01T03:53:02.597Z,12.66
2018-05-01T03:54:02.523Z,12.73
2018-05-01T03:55:02.485Z,12.70
2018-05-01T03:56:02.374Z,12.69
2018-05-01T03:57:02.311Z,12.66
2018-05-01T03:58:02.219Z,12.71
2018-05-01T03:59:02.203Z,12.71
2018-05-01T04:00:02.073Z,12.71
2018-05-01T04:01:02.014Z,12.73
2018-05-01T04:02:01.923Z,12.70
2018-05-01T04:03:01.849Z,12.73
2018-05-01T04:04:01.774Z,12.69
2018-05-01T04:05:01.736Z,12.71
2018-05-01T04:06:01.642Z,12.79
2018-05-01T04:07:01.553Z,12.74
2018-05-01T04:08:01.477Z,12.81
2018-05-01T04:09:01.458Z,12.74
2018-05-01T04:10:01.325Z,12.79
2018-05-01T04:11:01.261Z,12.78
2018-05-01T04:12:01.173Z,12.73
2018-05-01T04:13:01.094Z,12.78
2018-05-01T04:14:01.036Z,12.70
2018-05-01T04:15:00.979Z,12.70
2018-05-01T04:16:00.871Z,12.70
2018-05-01T04:17:01.321Z,12.67
2018-05-01T04:18:00.720Z,12.78
2018-05-01T04:19:00.703Z,12.66
2018-05-01T04:20:00.586Z,12.69
2018-05-01T04:21:00.611Z,12.70
2018-05-01T04:22:00.422Z,12.69
2018-05-01T04:23:00.420Z,12.63
2018-05-01T04:24:00.268Z,12.63
2018-05-01T04:25:00.229Z,12.64
2018-05-01T04:26:00.116Z,12.61
2018-05-01T04:27:00.138Z,12.64
2018-05-01T04:27:59.969Z,12.63
2018-05-01T04:28:59.947Z,12.70
2018-05-01T04:29:59.814Z,12.63
2018-05-01T04:30:59.738Z,12.73
2018-05-01T04:31:59.670Z,12.67
2018-05-01T04:32:59.666Z,12.61
2018-05-01T04:33:59.516Z,12.63
2018-05-01T04:34:59.478Z,12.60
2018-05-01T04:35:59.366Z,12.55
2018-05-01T04:36:59.391Z,12.60
2018-05-01T04:37:59.220Z,12.70
2018-05-01T04:38:59.198Z,12.74
2018-05-01T04:39:59.062Z,12.71
2018-05-01T04:40:59.999Z,12.71
2018-05-01T04:41:58.915Z,12.67
2018-05-01T04:42:58.914Z,12.67
2018-05-01T04:43:58.767Z,12.69
2018-05-01T04:45:10.402Z,12.67
2018-05-01T04:45:58.612Z,12.67
2018-05-01T04:46:58.637Z,12.60
2018-05-01T04:47:58.464Z,12.66
2018-05-01T04:48:58.443Z,12.60
2018-05-01T04:49:58.308Z,12.61
2018-05-01T04:50:58.358Z,12.53
2018-05-01T04:51:58.160Z,12.48
2018-05-01T04:52:58.159Z,12.46
2018-05-01T04:53:58.013Z,12.53
2018-05-01T04:54:57.974Z,12.48
2018-05-01T04:55:57.860Z,12.46
2018-05-01T04:56:57.881Z,12.44
2018-05-01T04:57:57.715Z,12.39
2018-05-01T04:58:57.689Z,12.39
2018-05-01T04:59:57.633Z,12.27
2018-05-01T05:00:57.601Z,12.26
2018-05-01T05:01:57.418Z,12.30
2018-05-01T05:02:57.413Z,12.34
2018-05-01T05:03:57.258Z,12.27
2018-05-01T05:04:57.219Z,12.31
2018-05-01T05:05:57.103Z,12.21
2018-05-01T05:06:57.129Z,12.19
2018-05-01T05:07:56.959Z,12.24
2018-05-01T05:08:56.938Z,12.16
2018-05-01T05:09:56.805Z,12.08
2018-05-01T05:10:56.851Z,12.03
2018-05-01T05:11:56.654Z,12.02
2018-05-01T05:12:56.659Z,11.93
2018-05-01T05:13:56.506Z,11.95
2018-05-01T05:14:56.465Z,11.95
2018-05-01T05:15:56.355Z,11.97
2018-05-01T05:16:56.378Z,11.95
2018-05-01T05:17:56.203Z,11.97
2018-05-01T05:18:56.192Z,11.94
2018-05-01T05:19:56.054Z,11.86
2018-05-01T05:20:55.994Z,11.93
2018-05-01T05:21:55.906Z,11.86
2018-05-01T05:22:55.904Z,11.89
2018-05-01T05:23:55.751Z,11.90
2018-05-01T05:24:55.711Z,11.94
2018-05-01T05:25:55.600Z,11.87
2018-05-01T05:26:55.623Z,11.98
2018-05-01T05:27:55.446Z,11.94
2018-05-01T05:28:55.435Z,11.86
2018-05-01T05:29:55.300Z,11.86
2018-05-01T05:30:55.242Z,11.89
2018-05-01T05:31:55.145Z,11.87
2018-05-01T05:32:55.081Z,11.86
2018-05-01T05:33:54.996Z,11.87
2018-05-01T05:34:54.958Z,11.78
2018-05-01T05:35:54.849Z,11.94
2018-05-01T05:36:54.869Z,11.86
2018-05-01T05:37:54.694Z,11.78
2018-05-01T05:38:54.684Z,11.89
2018-05-01T05:39:54.546Z,11.90
2018-05-01T05:40:54.486Z,11.72
2018-05-01T05:41:54.392Z,11.87
2018-05-01T05:42:54.398Z,11.83
2018-05-01T05:43:54.239Z,11.83
2018-05-01T05:44:54.208Z,11.78
2018-05-01T05:45:54.089Z,11.81
2018-05-01T05:46:54.126Z,11.76
2018-05-01T05:47:53.939Z,11.83
2018-05-01T05:48:53.960Z,11.76
2018-05-01T05:49:53.786Z,11.76
2018-05-01T05:50:53.737Z,11.72
2018-05-01T05:51:53.635Z,11.78
2018-05-01T05:52:53.559Z,11.69
2018-05-01T05:53:53.569Z,11.71
2018-05-01T05:54:53.411Z,11.69
2018-05-01T05:55:53.378Z,11.65
2018-05-01T05:56:53.263Z,11.65
2018-05-01T05:57:53.288Z,11.54
2018-05-01T05:58:53.108Z,11.53
2018-05-01T05:59:53.100Z,11.61
2018-05-01T06:00:52.954Z,11.59
2018-05-01T06:01:53.015Z,11.60
2018-05-01T06:02:52.807Z,11.60
2018-05-01T06:03:52.820Z,11.57
2018-05-01T06:04:52.651Z,11.60
2018-05-01T06:05:52.628Z,11.54
2018-05-01T06:06:52.505Z,11.53
2018-05-01T06:07:52.539Z,11.54
2018-05-01T06:08:52.394Z,11.54
2018-05-01T06:09:52.273Z,11.50
2018-05-01T06:10:52.257Z,11.54
2018-05-01T06:11:52.118Z,11.50
2018-05-01T06:12:52.166Z,11.50
2018-05-01T06:13:51.972Z,11.42
2018-05-01T06:14:51.976Z,11.36
2018-05-01T06:15:51.820Z,11.38
2018-05-01T06:16:51.885Z,11.39
2018-05-01T06:17:51.670Z,11.35
2018-05-01T06:18:51.692Z,11.28
2018-05-01T06:19:51.516Z,11.36
2018-05-01T06:20:51.508Z,11.31
2018-05-01T06:21:51.378Z,11.26
2018-05-01T06:22:51.416Z,11.36
2018-05-01T06:23:51.217Z,11.29
2018-05-01T06:24:51.225Z,11.32
2018-05-01T06:25:51.064Z,11.24
2018-05-01T06:26:51.033Z,11.21
2018-05-01T06:27:50.910Z,11.29
2018-05-01T06:28:50.945Z,11.21
2018-05-01T06:29:50.760Z,11.34
2018-05-01T06:30:50.754Z,11.29
2018-05-01T06:31:50.613Z,11.31
2018-05-01T06:32:50.671Z,11.35
2018-05-01T06:33:50.462Z,11.32
2018-05-01T06:34:50.477Z,11.29
2018-05-01T06:35:50.309Z,11.32
2018-05-01T06:36:50.346Z,11.42
2018-05-01T06:37:50.156Z,11.51
2018-05-01T06:38:50.195Z,11.54
2018-05-01T06:39:50.008Z,11.42
2018-05-01T06:40:50.003Z,11.46
2018-05-01T06:41:49.848Z,11.42
2018-05-01T06:42:49.914Z,11.35
2018-05-01T06:43:49.761Z,11.46
2018-05-01T06:44:49.723Z,11.42
2018-05-01T06:45:49.545Z,11.49
2018-05-01T06:46:49.532Z,11.51
2018-05-01T06:47:49.397Z,11.53
2018-05-01T06:48:49.320Z,11.49
2018-05-01T06:49:49.247Z,11.42
2018-05-01T06:50:49.302Z,11.43
2018-05-01T06:51:49.095Z,11.41
2018-05-01T06:52:49.164Z,11.42
2018-05-01T06:53:48.946Z,11.53
2018-05-01T06:54:48.975Z,11.51
2018-05-01T06:55:48.789Z,11.46
2018-05-01T06:56:48.782Z,11.54
2018-05-01T06:57:48.678Z,11.54
2018-05-01T06:58:48.695Z,11.39
2018-05-01T06:59:48.485Z,11.42
2018-05-01T07:00:48.509Z,11.51
2018-05-01T07:01:48.335Z,11.46
2018-05-01T07:02:48.310Z,11.50
2018-05-01T07:03:48.186Z,11.57
2018-05-01T07:04:48.227Z,11.57
2018-05-01T07:05:48.030Z,11.53
2018-05-01T07:06:48.033Z,11.60
2018-05-01T07:07:47.877Z,11.61
2018-05-01T07:08:47.944Z,11.61
2018-05-01T07:09:47.730Z,11.60
2018-05-01T07:10:47.753Z,11.57
2018-05-01T07:11:47.577Z,11.54
2018-05-01T07:12:47.562Z,11.57
2018-05-01T07:13:47.423Z,11.51
2018-05-01T07:14:47.473Z,11.60
2018-05-01T07:15:47.273Z,11.50
2018-05-01T07:16:47.284Z,11.59
2018-05-01T07:17:47.164Z,11.54
2018-05-01T07:18:47.047Z,11.59
2018-05-01T07:19:47.099Z,11.60
2018-05-01T07:20:46.893Z,11.56
2018-05-01T07:21:46.908Z,11.56
2018-05-01T07:22:46.741Z,11.56
2018-05-01T07:23:46.815Z,11.54
2018-05-01T07:24:46.589Z,11.60
2018-05-01T07:25:46.627Z,11.56
2018-05-01T07:26:46.440Z,11.64
2018-05-01T07:27:46.439Z,11.57
2018-05-01T07:28:46.297Z,11.65
2018-05-01T07:29:46.349Z,11.60
2018-05-01T07:30:46.133Z,11.64
2018-05-01T07:31:46.157Z,11.71
2018-05-01T07:32:45.981Z,11.71
2018-05-01T07:33:46.070Z,11.65
2018-05-01T07:34:45.830Z,11.75
2018-05-01T07:35:45.878Z,11.76
2018-05-01T07:36:45.675Z,11.76
2018-05-01T07:37:45.688Z,11.64
2018-05-01T07:38:45.522Z,11.78
2018-05-01T07:39:45.598Z,11.79
2018-05-01T07:40:45.376Z,11.90
2018-05-01T07:41:45.331Z,11.81
2018-05-01T07:42:45.221Z,11.87
2018-05-01T07:43:45.217Z,11.89
2018-05-01T07:44:45.068Z,11.81
2018-05-01T07:45:45.132Z,11.89
2018-05-01T07:46:44.919Z,11.81
2018-05-01T07:47:44.844Z,11.72
2018-05-01T07:48:44.842Z,11.81
2018-05-01T07:49:44.693Z,11.76
2018-05-01T07:50:44.654Z,11.79
2018-05-01T07:51:44.543Z,11.84
2018-05-01T07:52:44.561Z,11.94
2018-05-01T07:53:44.390Z,11.90
2018-05-01T07:54:44.474Z,11.89
2018-05-01T07:55:44.239Z,11.86
2018-05-01T07:56:44.279Z,11.84
2018-05-01T07:57:44.088Z,11.90
2018-05-01T07:58:44.094Z,11.84
2018-05-01T07:59:43.935Z,11.84
2018-05-01T08:00:44.012Z,11.90
2018-05-01T08:01:43.784Z,11.93
2018-05-01T08:02:43.825Z,11.94
2018-05-01T08:03:43.634Z,11.94
2018-05-01T08:04:43.723Z,11.93
2018-05-01T08:05:43.569Z,11.94
2018-05-01T08:06:43.590Z,11.93
2018-05-01T08:07:44.315Z,11.93
2018-05-01T08:08:43.350Z,11.81
2018-05-01T08:09:43.179Z,11.90
2018-05-01T08:10:43.253Z,11.86
2018-05-01T08:11:43.026Z,11.93
2018-05-01T08:12:43.062Z,11.93
2018-05-01T08:13:42.876Z,11.87
2018-05-01T08:14:42.980Z,11.89
2018-05-01T08:15:42.724Z,11.83
2018-05-01T08:16:42.786Z,11.81
2018-05-01T08:17:42.574Z,11.94
2018-05-01T08:18:42.596Z,11.81
2018-05-01T08:19:42.422Z,11.79
2018-05-01T08:20:42.504Z,11.75
2018-05-01T08:21:42.269Z,11.93
2018-05-01T08:22:42.310Z,11.90
2018-05-01T08:23:42.120Z,11.95
2018-05-01T08:24:42.123Z,11.81
2018-05-01T08:25:41.971Z,11.76
2018-05-01T08:26:42.034Z,11.78
2018-05-01T08:27:41.815Z,11.89
2018-05-01T08:28:41.844Z,11.79
2018-05-01T08:29:41.664Z,11.76
2018-05-01T08:30:41.755Z,11.98
2018-05-01T08:31:41.515Z,11.94
2018-05-01T08:32:41.562Z,11.75
2018-05-01T08:33:41.362Z,11.81
2018-05-01T08:34:41.293Z,11.84
2018-05-01T08:35:41.297Z,11.81
2018-05-01T08:36:41.139Z,11.89
2018-05-01T08:37:41.115Z,11.86
2018-05-01T08:38:41.092Z,11.95
2018-05-01T08:39:40.910Z,11.97
2018-05-01T08:40:41.001Z,11.98
2018-05-01T08:41:40.756Z,12.00
2018-05-01T08:42:40.680Z,12.00
2018-05-01T08:43:40.618Z,11.97
2018-05-01T08:44:40.623Z,11.98
2018-05-01T08:45:40.454Z,11.94
2018-05-01T08:46:40.532Z,11.97
2018-05-01T08:47:40.298Z,12.00
2018-05-01T08:48:40.340Z,11.93
2018-05-01T08:49:40.149Z,11.98
2018-05-01T08:50:40.257Z,11.94
2018-05-01T08:51:39.997Z,11.95
2018-05-01T08:52:40.064Z,11.93
2018-05-01T08:53:39.846Z,12.05
2018-05-01T08:54:39.876Z,12.03
2018-05-01T08:55:39.699Z,12.08
2018-05-01T08:56:39.785Z,12.13
2018-05-01T08:57:39.545Z,12.15
2018-05-01T08:58:39.491Z,11.97
2018-05-01T08:59:39.395Z,11.93
2018-05-01T09:00:39.318Z,11.65
2018-05-01T09:01:39.306Z,11.61
2018-05-01T09:02:39.165Z,11.69
2018-05-01T09:03:39.218Z,11.71
2018-05-01T09:04:39.012Z,11.84
2018-05-01T09:05:39.130Z,11.89
2018-05-01T09:06:38.864Z,11.84
2018-05-01T09:07:38.937Z,11.90
2018-05-01T09:08:38.707Z,11.83
2018-05-01T09:11:13.717Z,12.03
2018-05-01T09:12:13.623Z,12.08
2018-05-01T09:14:10.679Z,12.12
2018-05-01T09:15:10.730Z,12.21
2018-05-01T09:16:10.521Z,12.30
2018-05-01T09:17:10.541Z,12.28
2018-05-01T09:18:10.476Z,12.42
2018-05-01T09:19:10.450Z,12.37
2018-05-01T09:20:10.215Z,12.44
2018-05-01T09:21:10.259Z,12.53
2018-05-01T09:22:10.066Z,12.56
2018-05-01T09:23:10.172Z,12.63
2018-05-01T09:24:09.919Z,12.67
2018-05-01T09:25:10.022Z,12.77
2018-05-01T09:26:09.762Z,12.85
2018-05-01T09:27:09.791Z,13.00
2018-05-01T09:28:09.608Z,13.21
2018-05-01T09:29:09.599Z,13.47
2018-05-01T09:30:09.459Z,13.98
2018-05-01T09:31:09.404Z,14.32
2018-05-01T09:32:09.306Z,14.50
2018-05-01T09:33:09.318Z,14.52
2018-05-01T09:34:09.160Z,14.38
2018-05-01T09:35:09.227Z,14.42
2018-05-01T09:36:09.014Z,14.36
2018-05-01T09:37:09.037Z,14.27
2018-05-01T09:38:08.857Z,14.23
2018-05-01T09:39:08.948Z,14.11
2018-05-01T09:40:08.710Z,14.11
2018-05-01T09:41:08.762Z,14.07
2018-05-01T09:42:08.559Z,13.98
2018-05-01T09:43:08.671Z,13.98
2018-05-01T09:44:08.409Z,13.99
2018-05-01T09:45:08.481Z,14.02
2018-05-01T09:46:08.262Z,13.95
2018-05-01T09:47:08.289Z,13.98
2018-05-01T09:48:08.111Z,13.95
2018-05-01T09:49:08.101Z,13.99
2018-05-01T09:50:07.968Z,14.17
2018-05-01T09:51:08.005Z,14.39
2018-05-01T09:52:07.809Z,14.68
2018-05-01T09:53:07.923Z,14.90
2018-05-01T09:54:07.664Z,15.01
2018-05-01T09:55:07.729Z,15.13
2018-05-01T09:56:07.511Z,15.15
2018-05-01T09:57:07.539Z,15.39
2018-05-01T09:58:07.361Z,15.61
2018-05-01T09:59:07.451Z,15.81
2018-05-01T10:00:07.222Z,16.06
2018-05-01T10:01:07.267Z,16.10
2018-05-01T10:02:07.071Z,16.23
2018-05-01T10:03:07.172Z,16.22
2018-05-01T10:04:06.916Z,16.15
2018-05-01T10:05:06.980Z,16.23
2018-05-01T10:06:06.766Z,16.07
2018-05-01T10:07:06.890Z,16.16
2018-05-01T10:08:06.622Z,16.18
2018-05-01T10:09:06.706Z,16.14
2018-05-01T10:10:06.473Z,16.10
2018-05-01T10:11:06.517Z,16.15
2018-05-01T10:12:06.325Z,16.25
2018-05-01T10:13:06.464Z,16.29
2018-05-01T10:14:06.178Z,16.52
2018-05-01T10:15:06.231Z,16.67
2018-05-01T10:16:06.029Z,16.82
2018-05-01T10:17:06.141Z,17.03
2018-05-01T10:18:05.881Z,17.08
2018-05-01T10:19:05.951Z,17.21
2018-05-01T10:20:05.738Z,17.47
2018-05-01T10:21:05.862Z,17.64
2018-05-01T10:22:05.591Z,17.67
2018-05-01T10:23:05.672Z,17.87
2018-05-01T10:24:05.516Z,17.92
2018-05-01T10:25:05.481Z,17.92
2018-05-01T10:26:05.296Z,18.03
2018-05-01T10:27:05.391Z,17.79
2018-05-01T10:28:05.150Z,17.77
2018-05-01T10:29:05.206Z,17.73
2018-05-01T10:30:05.006Z,17.73
2018-05-01T10:31:05.116Z,17.70
2018-05-01T10:32:04.860Z,17.54
2018-05-01T10:33:04.925Z,17.66
2018-05-01T10:34:04.712Z,17.63
2018-05-01T10:35:04.839Z,17.67
2018-05-01T10:36:04.566Z,17.81
2018-05-01T10:37:04.642Z,17.96
2018-05-01T10:38:04.420Z,17.91
2018-05-01T10:39:04.585Z,17.98
2018-05-01T10:40:04.280Z,17.87
2018-05-01T10:41:04.205Z,17.73
2018-05-01T10:42:04.132Z,17.48
2018-05-01T10:43:04.175Z,17.21
2018-05-01T10:44:03.993Z,17.11
2018-05-01T10:45:04.084Z,16.98
2018-05-01T10:46:03.845Z,16.82
2018-05-01T10:47:03.893Z,16.90
2018-05-01T10:48:03.702Z,16.81
2018-05-01T10:49:03.806Z,16.85
2018-05-01T10:50:03.562Z,16.99
2018-05-01T10:51:03.616Z,16.95
2018-05-01T10:52:03.411Z,17.14
2018-05-01T10:53:03.341Z,17.20
2018-05-01T10:54:03.433Z,17.20
2018-05-01T10:55:03.196Z,17.29
2018-05-01T10:56:03.343Z,17.36
2018-05-01T10:57:03.056Z,17.21
2018-05-01T10:58:03.155Z,17.32
2018-05-01T10:59:02.914Z,17.21
2018-05-01T11:00:02.958Z,17.15
2018-05-01T11:01:02.767Z,17.18
2018-05-01T11:02:04.814Z,17.15
2018-05-01T11:03:02.621Z,17.21
2018-05-01T11:04:04.728Z,17.26
2018-05-01T11:05:02.670Z,17.21
2018-05-01T11:06:02.427Z,17.14
2018-05-01T11:07:02.402Z,17.08
2018-05-01T11:08:02.258Z,17.00
2018-05-01T11:09:02.187Z,16.93
2018-05-01T11:10:02.121Z,16.90
2018-05-01T11:11:02.117Z,16.96
2018-05-01T11:12:01.977Z,16.85
2018-05-01T11:13:02.125Z,16.92
2018-05-01T11:14:01.831Z,16.93
2018-05-01T11:15:01.938Z,16.88
2018-05-01T11:16:01.687Z,16.95
2018-05-01T11:17:01.749Z,16.90
2018-05-01T11:18:01.539Z,16.84
2018-05-01T11:19:01.657Z,16.71
2018-05-01T11:20:01.398Z,16.52
2018-05-01T11:21:01.334Z,16.30
2018-05-01T11:22:01.261Z,16.29
2018-05-01T11:23:01.180Z,16.16
2018-05-01T11:24:01.182Z,16.26
2018-05-01T11:25:01.039Z,16.35
2018-05-01T11:26:01.194Z,16.41
2018-05-01T11:27:00.891Z,16.45
2018-05-01T11:29:34.532Z,16.56
2018-05-01T11:30:34.629Z,16.57
2018-05-01T11:32:33.116Z,16.50
2018-05-01T11:33:33.252Z,16.59
2018-05-01T11:34:32.958Z,16.63
2018-05-01T11:35:33.104Z,16.62
2018-05-01T11:36:32.811Z,16.71
2018-05-01T11:37:32.912Z,16.90
2018-05-01T11:38:32.668Z,16.99
2018-05-01T11:39:32.596Z,17.20
2018-05-01T11:40:32.727Z,17.30
2018-05-01T11:41:32.455Z,17.32
2018-05-01T11:42:32.383Z,17.30
2018-05-01T11:43:32.437Z,17.28
2018-05-01T11:44:32.238Z,17.29
2018-05-01T11:45:32.355Z,17.18
2018-05-01T11:46:32.091Z,17.26
2018-05-01T11:47:32.165Z,17.36
2018-05-01T11:48:31.945Z,17.55
2018-05-01T11:49:32.080Z,17.58
2018-05-01T11:50:31.805Z,17.71
2018-05-01T11:51:31.883Z,17.91
2018-05-01T11:52:31.665Z,17.87
2018-05-01T11:53:31.692Z,17.95
2018-05-01T11:54:31.520Z,17.85
2018-05-01T11:55:32.474Z,17.81
2018-05-01T11:56:31.405Z,17.77
2018-05-01T11:57:31.400Z,17.70
2018-05-01T11:58:31.233Z,17.84
2018-05-01T11:59:31.208Z,17.77
2018-05-01T12:00:31.124Z,17.50
2018-05-01T12:01:31.120Z,17.32
2018-05-01T12:02:30.971Z,16.95
2018-05-01T12:03:30.926Z,17.00
2018-05-01T12:04:30.819Z,17.17
2018-05-01T12:05:30.837Z,17.25
2018-05-01T12:06:30.660Z,17.38
2018-05-01T12:07:30.652Z,17.60
2018-05-01T12:08:30.515Z,17.57
2018-05-01T12:09:30.556Z,17.43
2018-05-01T12:10:30.461Z,17.55
2018-05-01T12:11:30.363Z,17.64
2018-05-01T12:12:30.226Z,17.66
2018-05-01T12:13:30.174Z,17.76
2018-05-01T12:14:30.089Z,17.98
2018-05-01T12:15:30.088Z,18.10
2018-05-01T12:16:29.948Z,18.18
2018-05-01T12:17:29.896Z,18.34
2018-05-01T12:18:29.848Z,18.53
2018-05-01T12:19:29.809Z,18.53
2018-05-01T12:20:29.658Z,18.67
2018-05-01T12:21:29.613Z,18.68
2018-05-01T12:22:29.519Z,18.68
2018-05-01T12:23:29.525Z,18.57
2018-05-01T12:24:29.375Z,18.43
2018-05-01T12:25:29.442Z,17.74
2018-05-01T12:26:29.236Z,17.40
2018-05-01T12:27:29.243Z,16.95
2018-05-01T12:28:29.093Z,16.92
2018-05-01T12:29:29.053Z,16.71
2018-05-01T12:30:28.948Z,16.60
2018-05-01T12:31:29.994Z,16.70
2018-05-01T12:32:28.812Z,16.75
2018-05-01T12:33:28.779Z,16.77
2018-05-01T12:34:28.665Z,16.78
2018-05-01T12:35:28.682Z,16.63
2018-05-01T12:36:28.641Z,16.30
2018-05-01T12:37:28.488Z,16.14
2018-05-01T12:38:28.382Z,16.14
2018-05-01T12:39:28.403Z,16.01
2018-05-01T12:40:28.236Z,15.88
2018-05-01T12:41:28.210Z,15.86
2018-05-01T12:42:28.108Z,15.81
2018-05-01T12:43:28.121Z,15.81
2018-05-01T12:44:27.964Z,15.91
2018-05-01T12:45:27.929Z,15.97
2018-05-01T12:46:27.806Z,16.10
2018-05-01T12:47:27.842Z,16.20
2018-05-01T12:48:27.746Z,16.29
2018-05-01T12:49:27.651Z,16.41
2018-05-01T12:50:27.521Z,16.50
2018-05-01T12:51:27.562Z,16.57
2018-05-01T12:52:27.431Z,16.65
2018-05-01T12:53:27.368Z,16.71
2018-05-01T12:54:27.235Z,16.74
2018-05-01T12:55:27.280Z,16.85
2018-05-01T12:56:27.096Z,16.89